Rechercher aéroport 
image banner adimage banner adimage banner ad
image banner ad

CL70 - Queen Of Angel-Hollywood Presbyterian Hos

Situé à Los Angeles, United States

ICAO - CL70, IATA -

Données fournies par Airmate  

Information générale

Coordonnées: N34°5'47" W118°17'25"
Élévation : 524 feet MSL.
Variation magnétique : 14° East
Voir autres Aéroports à California

Données opérationnelles

Special qualification required
Heure actuelle UTC:
Heure actuelle locale:
Météo à : KBUR - Bob Hope ( 13 km )
METAR: KBUR 270553Z 00000KT 10SM CLR 19/16 A2999 RMK AO2 SLP142 T01940156 10239 20194 51019 $
TAF: KBUR 270537Z 2706/2806 VRB03KT P6SM SKC FM271900 17009KT P6SM SKC FM280300 12007KT P6SM SKC
Voir NOTAMs / SUP AIP / TFR affectant cet aéroport [VIEW]
Fréquences de communication: [VIEW]

Pistes:

Coordonnées de l'aéroport

Adresse: Los Angeles United States

Vue satellite de CL70